sensor_id;sensor_type;location;lat;lon;timestamp;temperature;humidity
3944;DHT22;1986;52.546;13.428;2024-02-21T00:00:22;8.50;99.90
3944;DHT22;1986;52.546;13.428;2024-02-21T00:02:50;8.50;99.90
3944;DHT22;1986;52.546;13.428;2024-02-21T00:05:19;8.50;99.90
3944;DHT22;1986;52.546;13.428;2024-02-21T00:07:47;8.50;99.90
3944;DHT22;1986;52.546;13.428;2024-02-21T00:10:14;8.40;99.90
3944;DHT22;1986;52.546;13.428;2024-02-21T00:12:40;8.50;99.90
3944;DHT22;1986;52.546;13.428;2024-02-21T00:15:09;8.50;99.90
3944;DHT22;1986;52.546;13.428;2024-02-21T00:17:43;8.50;99.90
3944;DHT22;1986;52.546;13.428;2024-02-21T00:20:11;8.40;99.90
3944;DHT22;1986;52.546;13.428;2024-02-21T00:22:38;8.40;99.90
3944;DHT22;1986;52.546;13.428;2024-02-21T00:25:05;8.50;99.90
3944;DHT22;1986;52.546;13.428;2024-02-21T00:27:33;8.50;99.90
3944;DHT22;1986;52.546;13.428;2024-02-21T00:30:04;8.40;99.90
3944;DHT22;1986;52.546;13.428;2024-02-21T00:32:31;8.40;99.90
3944;DHT22;1986;52.546;13.428;2024-02-21T00:35:01;8.40;99.90
3944;DHT22;1986;52.546;13.428;2024-02-21T00:37:27;8.30;99.90
3944;DHT22;1986;52.546;13.428;2024-02-21T00:39:55;8.20;99.90
3944;DHT22;1986;52.546;13.428;2024-02-21T00:42:22;8.20;99.90
3944;DHT22;1986;52.546;13.428;2024-02-21T00:44:49;8.20;99.90
3944;DHT22;1986;52.546;13.428;2024-02-21T00:47:16;8.20;99.90
3944;DHT22;1986;52.546;13.428;2024-02-21T00:49:44;8.20;99.90
3944;DHT22;1986;52.546;13.428;2024-02-21T00:52:12;8.20;99.90
3944;DHT22;1986;52.546;13.428;2024-02-21T00:54:39;8.20;99.90
3944;DHT22;1986;52.546;13.428;2024-02-21T00:57:06;8.30;99.90
3944;DHT22;1986;52.546;13.428;2024-02-21T00:59:33;8.30;99.90
3944;DHT22;1986;52.546;13.428;2024-02-21T01:02:00;8.30;99.90
3944;DHT22;1986;52.546;13.428;2024-02-21T01:04:27;8.30;99.90
3944;DHT22;1986;52.546;13.428;2024-02-21T01:06:54;8.30;99.90
3944;DHT22;1986;52.546;13.428;2024-02-21T01:09:22;8.30;99.90
3944;DHT22;1986;52.546;13.428;2024-02-21T01:11:49;8.30;99.90
3944;DHT22;1986;52.546;13.428;2024-02-21T01:14:16;8.30;99.90
3944;DHT22;1986;52.546;13.428;2024-02-21T01:16:43;8.20;99.90
3944;DHT22;1986;52.546;13.428;2024-02-21T01:19:10;8.20;99.90
3944;DHT22;1986;52.546;13.428;2024-02-21T01:21:37;8.20;99.90
3944;DHT22;1986;52.546;13.428;2024-02-21T01:24:04;8.20;99.90
3944;DHT22;1986;52.546;13.428;2024-02-21T01:26:33;8.20;99.90
3944;DHT22;1986;52.546;13.428;2024-02-21T01:29:00;8.20;99.90
3944;DHT22;1986;52.546;13.428;2024-02-21T01:31:26;8.20;99.90
3944;DHT22;1986;52.546;13.428;2024-02-21T01:33:53;8.20;99.90
3944;DHT22;1986;52.546;13.428;2024-02-21T01:36:21;8.20;99.90
3944;DHT22;1986;52.546;13.428;2024-02-21T01:38:48;8.20;99.90
3944;DHT22;1986;52.546;13.428;2024-02-21T01:41:15;8.20;99.90
3944;DHT22;1986;52.546;13.428;2024-02-21T01:43:43;8.20;99.90
3944;DHT22;1986;52.546;13.428;2024-02-21T01:46:12;8.30;99.90
3944;DHT22;1986;52.546;13.428;2024-02-21T01:48:39;8.30;99.90
3944;DHT22;1986;52.546;13.428;2024-02-21T01:51:06;8.30;99.90
3944;DHT22;1986;52.546;13.428;2024-02-21T01:53:36;8.30;99.90
3944;DHT22;1986;52.546;13.428;2024-02-21T01:56:06;8.30;99.90
3944;DHT22;1986;52.546;13.428;2024-02-21T01:58:33;8.30;99.90
3944;DHT22;1986;52.546;13.428;2024-02-21T02:01:06;8.20;99.90
3944;DHT22;1986;52.546;13.428;2024-02-21T02:03:34;8.30;99.90
3944;DHT22;1986;52.546;13.428;2024-02-21T02:06:01;8.20;99.90
3944;DHT22;1986;52.546;13.428;2024-02-21T02:08:28;8.30;99.90
3944;DHT22;1986;52.546;13.428;2024-02-21T02:10:55;8.20;99.90
3944;DHT22;1986;52.546;13.428;2024-02-21T02:13:22;8.30;99.90
3944;DHT22;1986;52.546;13.428;2024-02-21T02:15:50;8.30;99.90
3944;DHT22;1986;52.546;13.428;2024-02-21T02:18:19;8.30;99.90
3944;DHT22;1986;52.546;13.428;2024-02-21T02:20:48;8.30;99.90
3944;DHT22;1986;52.546;13.428;2024-02-21T02:23:25;8.30;99.90
3944;DHT22;1986;52.546;13.428;2024-02-21T02:25:52;8.20;99.90
3944;DHT22;1986;52.546;13.428;2024-02-21T02:28:20;8.10;99.90
3944;DHT22;1986;52.546;13.428;2024-02-21T02:30:47;8.10;99.90
3944;DHT22;1986;52.546;13.428;2024-02-21T02:33:15;8.00;99.90
3944;DHT22;1986;52.546;13.428;2024-02-21T02:35:43;8.00;99.90
3944;DHT22;1986;52.546;13.428;2024-02-21T02:38:10;7.90;99.90
3944;DHT22;1986;52.546;13.428;2024-02-21T02:40:40;7.90;99.90
3944;DHT22;1986;52.546;13.428;2024-02-21T02:43:07;7.80;99.90
3944;DHT22;1986;52.546;13.428;2024-02-21T02:45:34;7.80;99.90
3944;DHT22;1986;52.546;13.428;2024-02-21T02:48:03;7.80;99.90
3944;DHT22;1986;52.546;13.428;2024-02-21T02:50:30;7.70;99.90
3944;DHT22;1986;52.546;13.428;2024-02-21T02:52:57;7.70;99.90
3944;DHT22;1986;52.546;13.428;2024-02-21T02:55:24;7.70;99.90
3944;DHT22;1986;52.546;13.428;2024-02-21T02:57:53;7.70;99.90
3944;DHT22;1986;52.546;13.428;2024-02-21T03:00:20;7.60;99.90
3944;DHT22;1986;52.546;13.428;2024-02-21T03:02:48;7.60;99.90
3944;DHT22;1986;52.546;13.428;2024-02-21T03:05:16;7.60;99.90
3944;DHT22;1986;52.546;13.428;2024-02-21T03:07:44;7.50;99.90
3944;DHT22;1986;52.546;13.428;2024-02-21T03:10:12;7.50;99.90
3944;DHT22;1986;52.546;13.428;2024-02-21T03:12:40;7.50;99.90
3944;DHT22;1986;52.546;13.428;2024-02-21T03:15:09;7.50;99.90
3944;DHT22;1986;52.546;13.428;2024-02-21T03:17:36;7.50;99.90
3944;DHT22;1986;52.546;13.428;2024-02-21T03:20:05;7.40;99.90
3944;DHT22;1986;52.546;13.428;2024-02-21T03:22:36;7.40;99.90
3944;DHT22;1986;52.546;13.428;2024-02-21T03:25:03;7.40;99.90
3944;DHT22;1986;52.546;13.428;2024-02-21T03:27:30;7.40;99.90
3944;DHT22;1986;52.546;13.428;2024-02-21T03:29:57;7.40;99.90
3944;DHT22;1986;52.546;13.428;2024-02-21T03:32:25;7.40;99.90
3944;DHT22;1986;52.546;13.428;2024-02-21T03:34:53;7.30;99.90
3944;DHT22;1986;52.546;13.428;2024-02-21T03:37:20;7.40;99.90
3944;DHT22;1986;52.546;13.428;2024-02-21T03:39:47;7.30;99.90
3944;DHT22;1986;52.546;13.428;2024-02-21T03:42:14;7.30;99.90
3944;DHT22;1986;52.546;13.428;2024-02-21T03:44:44;7.30;99.90
3944;DHT22;1986;52.546;13.428;2024-02-21T03:47:11;7.30;99.90
3944;DHT22;1986;52.546;13.428;2024-02-21T03:49:42;7.30;99.90
3944;DHT22;1986;52.546;13.428;2024-02-21T03:52:09;7.30;99.90
3944;DHT22;1986;52.546;13.428;2024-02-21T03:54:36;7.30;99.90
3944;DHT22;1986;52.546;13.428;2024-02-21T03:57:04;7.30;99.90
3944;DHT22;1986;52.546;13.428;2024-02-21T03:59:32;7.30;99.90
3944;DHT22;1986;52.546;13.428;2024-02-21T04:01:58;7.20;99.90
3944;DHT22;1986;52.546;13.428;2024-02-21T04:04:26;7.30;99.90
3944;DHT22;1986;52.546;13.428;2024-02-21T04:06:54;7.30;99.90
3944;DHT22;1986;52.546;13.428;2024-02-21T04:09:22;7.30;99.90
3944;DHT22;1986;52.546;13.428;2024-02-21T04:11:49;7.30;99.90
3944;DHT22;1986;52.546;13.428;2024-02-21T04:14:16;7.30;99.90
3944;DHT22;1986;52.546;13.428;2024-02-21T04:16:46;7.30;99.90
3944;DHT22;1986;52.546;13.428;2024-02-21T04:19:13;7.30;99.90
3944;DHT22;1986;52.546;13.428;2024-02-21T04:21:42;7.30;99.90
3944;DHT22;1986;52.546;13.428;2024-02-21T04:24:10;7.30;99.90
3944;DHT22;1986;52.546;13.428;2024-02-21T04:26:37;7.30;99.90
3944;DHT22;1986;52.546;13.428;2024-02-21T04:29:05;7.30;99.90
3944;DHT22;1986;52.546;13.428;2024-02-21T04:31:32;7.30;99.90
3944;DHT22;1986;52.546;13.428;2024-02-21T04:33:59;7.30;99.90
3944;DHT22;1986;52.546;13.428;2024-02-21T04:36:26;7.30;99.90
3944;DHT22;1986;52.546;13.428;2024-02-21T04:38:57;7.30;99.90
3944;DHT22;1986;52.546;13.428;2024-02-21T04:41:26;7.40;99.90
3944;DHT22;1986;52.546;13.428;2024-02-21T04:43:52;7.30;99.90
3944;DHT22;1986;52.546;13.428;2024-02-21T04:46:19;7.40;99.90
3944;DHT22;1986;52.546;13.428;2024-02-21T04:48:46;7.30;99.90
3944;DHT22;1986;52.546;13.428;2024-02-21T04:51:13;7.30;99.90
3944;DHT22;1986;52.546;13.428;2024-02-21T04:53:40;7.30;99.90
3944;DHT22;1986;52.546;13.428;2024-02-21T04:56:07;7.40;99.90
3944;DHT22;1986;52.546;13.428;2024-02-21T04:58:41;7.40;99.90
3944;DHT22;1986;52.546;13.428;2024-02-21T05:01:08;7.40;99.90
3944;DHT22;1986;52.546;13.428;2024-02-21T05:03:38;7.40;99.90
3944;DHT22;1986;52.546;13.428;2024-02-21T05:06:06;7.30;99.90
3944;DHT22;1986;52.546;13.428;2024-02-21T05:08:33;7.30;99.90
3944;DHT22;1986;52.546;13.428;2024-02-21T05:11:00;7.30;99.90
3944;DHT22;1986;52.546;13.428;2024-02-21T05:13:28;7.30;99.90
3944;DHT22;1986;52.546;13.428;2024-02-21T05:15:56;7.30;99.90
3944;DHT22;1986;52.546;13.428;2024-02-21T05:18:26;7.30;99.90
3944;DHT22;1986;52.546;13.428;2024-02-21T05:20:53;7.30;99.90
3944;DHT22;1986;52.546;13.428;2024-02-21T05:23:21;7.30;99.90
3944;DHT22;1986;52.546;13.428;2024-02-21T05:25:47;7.30;99.90
3944;DHT22;1986;52.546;13.428;2024-02-21T05:28:14;7.30;99.90
3944;DHT22;1986;52.546;13.428;2024-02-21T05:30:41;7.30;99.90
3944;DHT22;1986;52.546;13.428;2024-02-21T05:33:13;7.30;99.90
3944;DHT22;1986;52.546;13.428;2024-02-21T05:35:46;7.30;99.90
3944;DHT22;1986;52.546;13.428;2024-02-21T05:38:13;7.30;99.90
3944;DHT22;1986;52.546;13.428;2024-02-21T05:40:40;7.30;99.90
3944;DHT22;1986;52.546;13.428;2024-02-21T05:43:07;7.30;99.90
3944;DHT22;1986;52.546;13.428;2024-02-21T05:45:35;7.30;99.90
3944;DHT22;1986;52.546;13.428;2024-02-21T05:48:06;7.30;99.90
3944;DHT22;1986;52.546;13.428;2024-02-21T05:50:34;7.40;99.90
3944;DHT22;1986;52.546;13.428;2024-02-21T05:53:02;7.40;99.90
3944;DHT22;1986;52.546;13.428;2024-02-21T05:55:29;7.40;99.90
3944;DHT22;1986;52.546;13.428;2024-02-21T05:57:56;7.30;99.90
3944;DHT22;1986;52.546;13.428;2024-02-21T06:00:23;7.40;99.90
3944;DHT22;1986;52.546;13.428;2024-02-21T06:02:50;7.40;99.90
3944;DHT22;1986;52.546;13.428;2024-02-21T06:05:17;7.40;99.90
3944;DHT22;1986;52.546;13.428;2024-02-21T06:07:45;7.40;99.90
3944;DHT22;1986;52.546;13.428;2024-02-21T06:10:12;7.40;99.90
3944;DHT22;1986;52.546;13.428;2024-02-21T06:12:40;7.40;99.90
3944;DHT22;1986;52.546;13.428;2024-02-21T06:15:08;7.40;99.90
3944;DHT22;1986;52.546;13.428;2024-02-21T06:17:35;7.40;99.90
3944;DHT22;1986;52.546;13.428;2024-02-21T06:20:05;7.50;99.90
3944;DHT22;1986;52.546;13.428;2024-02-21T06:22:34;7.40;99.90
3944;DHT22;1986;52.546;13.428;2024-02-21T06:25:05;7.50;99.90
3944;DHT22;1986;52.546;13.428;2024-02-21T06:27:34;7.50;99.90
3944;DHT22;1986;52.546;13.428;2024-02-21T06:30:01;7.40;99.90
3944;DHT22;1986;52.546;13.428;2024-02-21T06:32:28;7.40;99.90
3944;DHT22;1986;52.546;13.428;2024-02-21T06:34:59;7.50;99.90
3944;DHT22;1986;52.546;13.428;2024-02-21T06:37:28;7.50;99.90
3944;DHT22;1986;52.546;13.428;2024-02-21T06:39:56;7.50;99.90
3944;DHT22;1986;52.546;13.428;2024-02-21T06:42:26;7.60;99.90
3944;DHT22;1986;52.546;13.428;2024-02-21T06:44:53;7.60;99.90
3944;DHT22;1986;52.546;13.428;2024-02-21T06:47:21;7.50;99.90
3944;DHT22;1986;52.546;13.428;2024-02-21T06:49:49;7.50;99.90
3944;DHT22;1986;52.546;13.428;2024-02-21T06:52:22;7.60;99.90
3944;DHT22;1986;52.546;13.428;2024-02-21T06:54:50;7.60;99.90
3944;DHT22;1986;52.546;13.428;2024-02-21T06:57:17;7.60;99.90
3944;DHT22;1986;52.546;13.428;2024-02-21T06:59:48;7.60;99.90
3944;DHT22;1986;52.546;13.428;2024-02-21T07:02:15;7.60;99.90
3944;DHT22;1986;52.546;13.428;2024-02-21T07:04:42;7.60;99.90
3944;DHT22;1986;52.546;13.428;2024-02-21T07:07:09;7.60;99.90
3944;DHT22;1986;52.546;13.428;2024-02-21T07:09:36;7.70;99.90
3944;DHT22;1986;52.546;13.428;2024-02-21T07:12:03;7.70;99.90
3944;DHT22;1986;52.546;13.428;2024-02-21T07:14:32;7.70;99.90
3944;DHT22;1986;52.546;13.428;2024-02-21T07:17:00;7.70;99.90
3944;DHT22;1986;52.546;13.428;2024-02-21T07:19:30;7.70;99.90
3944;DHT22;1986;52.546;13.428;2024-02-21T07:21:58;7.70;99.90
3944;DHT22;1986;52.546;13.428;2024-02-21T07:24:25;7.80;99.90
3944;DHT22;1986;52.546;13.428;2024-02-21T07:26:52;7.80;99.90
3944;DHT22;1986;52.546;13.428;2024-02-21T07:29:19;7.80;99.90
3944;DHT22;1986;52.546;13.428;2024-02-21T07:31:46;7.80;99.90
3944;DHT22;1986;52.546;13.428;2024-02-21T07:34:15;7.90;99.90
3944;DHT22;1986;52.546;13.428;2024-02-21T07:36:42;7.90;99.90
3944;DHT22;1986;52.546;13.428;2024-02-21T07:39:10;7.90;99.90
3944;DHT22;1986;52.546;13.428;2024-02-21T07:41:37;8.00;99.90
3944;DHT22;1986;52.546;13.428;2024-02-21T07:44:06;8.00;99.90
3944;DHT22;1986;52.546;13.428;2024-02-21T07:46:34;8.00;99.90
3944;DHT22;1986;52.546;13.428;2024-02-21T07:49:01;8.10;99.90
3944;DHT22;1986;52.546;13.428;2024-02-21T07:51:30;8.10;99.90
3944;DHT22;1986;52.546;13.428;2024-02-21T07:53:57;8.10;99.90
3944;DHT22;1986;52.546;13.428;2024-02-21T07:56:27;8.10;99.90
3944;DHT22;1986;52.546;13.428;2024-02-21T07:58:58;8.10;99.90
3944;DHT22;1986;52.546;13.428;2024-02-21T08:01:25;8.10;99.90
3944;DHT22;1986;52.546;13.428;2024-02-21T08:03:52;8.10;99.90
3944;DHT22;1986;52.546;13.428;2024-02-21T08:06:21;8.00;99.90
3944;DHT22;1986;52.546;13.428;2024-02-21T08:08:51;8.10;99.90
3944;DHT22;1986;52.546;13.428;2024-02-21T08:11:18;8.10;99.90
3944;DHT22;1986;52.546;13.428;2024-02-21T08:13:45;8.00;99.90
3944;DHT22;1986;52.546;13.428;2024-02-21T08:16:12;8.10;99.90
3944;DHT22;1986;52.546;13.428;2024-02-21T08:18:39;8.10;99.90
3944;DHT22;1986;52.546;13.428;2024-02-21T08:21:09;8.10;99.90
3944;DHT22;1986;52.546;13.428;2024-02-21T08:23:52;8.10;99.90
3944;DHT22;1986;52.546;13.428;2024-02-21T08:26:20;8.10;99.90
3944;DHT22;1986;52.546;13.428;2024-02-21T08:28:47;8.10;99.90
3944;DHT22;1986;52.546;13.428;2024-02-21T08:31:18;8.20;99.90
3944;DHT22;1986;52.546;13.428;2024-02-21T08:33:46;8.10;99.90
3944;DHT22;1986;52.546;13.428;2024-02-21T08:36:21;8.20;99.90
3944;DHT22;1986;52.546;13.428;2024-02-21T08:38:48;8.20;99.90
3944;DHT22;1986;52.546;13.428;2024-02-21T08:41:17;8.30;99.90
3944;DHT22;1986;52.546;13.428;2024-02-21T08:43:48;8.30;99.90
3944;DHT22;1986;52.546;13.428;2024-02-21T08:46:15;8.40;99.90
3944;DHT22;1986;52.546;13.428;2024-02-21T08:48:43;8.40;99.90
3944;DHT22;1986;52.546;13.428;2024-02-21T08:51:11;8.40;99.90
3944;DHT22;1986;52.546;13.428;2024-02-21T08:53:39;8.40;99.90
3944;DHT22;1986;52.546;13.428;2024-02-21T08:56:06;8.50;99.90
3944;DHT22;1986;52.546;13.428;2024-02-21T08:58:36;8.60;99.90
3944;DHT22;1986;52.546;13.428;2024-02-21T09:01:04;8.70;99.90
3944;DHT22;1986;52.546;13.428;2024-02-21T09:03:31;8.70;99.90
3944;DHT22;1986;52.546;13.428;2024-02-21T09:05:59;8.70;99.90
3944;DHT22;1986;52.546;13.428;2024-02-21T09:08:28;8.70;99.90
3944;DHT22;1986;52.546;13.428;2024-02-21T09:10:57;8.70;99.90
3944;DHT22;1986;52.546;13.428;2024-02-21T09:13:26;8.70;99.90
3944;DHT22;1986;52.546;13.428;2024-02-21T09:15:57;8.70;99.90
3944;DHT22;1986;52.546;13.428;2024-02-21T09:18:25;8.70;99.90
3944;DHT22;1986;52.546;13.428;2024-02-21T09:20:55;8.80;99.90
3944;DHT22;1986;52.546;13.428;2024-02-21T09:23:24;8.90;99.90
3944;DHT22;1986;52.546;13.428;2024-02-21T09:25:51;8.90;99.90
3944;DHT22;1986;52.546;13.428;2024-02-21T09:28:18;8.90;99.90
3944;DHT22;1986;52.546;13.428;2024-02-21T09:30:45;8.90;99.90
3944;DHT22;1986;52.546;13.428;2024-02-21T09:33:13;8.90;99.90
3944;DHT22;1986;52.546;13.428;2024-02-21T09:35:42;9.00;99.90
3944;DHT22;1986;52.546;13.428;2024-02-21T09:38:09;9.00;99.90
3944;DHT22;1986;52.546;13.428;2024-02-21T09:40:40;9.00;99.90
3944;DHT22;1986;52.546;13.428;2024-02-21T09:43:08;9.10;99.90
3944;DHT22;1986;52.546;13.428;2024-02-21T09:45:35;9.10;99.90
3944;DHT22;1986;52.546;13.428;2024-02-21T09:48:25;9.20;99.90
3944;DHT22;1986;52.546;13.428;2024-02-21T09:50:54;9.40;99.90
3944;DHT22;1986;52.546;13.428;2024-02-21T09:53:22;9.40;99.90
3944;DHT22;1986;52.546;13.428;2024-02-21T09:55:52;9.50;99.90
3944;DHT22;1986;52.546;13.428;2024-02-21T09:58:19;9.50;99.90
3944;DHT22;1986;52.546;13.428;2024-02-21T10:00:46;9.40;99.90
3944;DHT22;1986;52.546;13.428;2024-02-21T10:03:13;9.40;99.90
3944;DHT22;1986;52.546;13.428;2024-02-21T10:05:48;9.40;99.90
3944;DHT22;1986;52.546;13.428;2024-02-21T10:08:15;9.50;99.90
3944;DHT22;1986;52.546;13.428;2024-02-21T10:10:43;9.50;99.90
3944;DHT22;1986;52.546;13.428;2024-02-21T10:13:10;9.50;99.90
3944;DHT22;1986;52.546;13.428;2024-02-21T10:15:39;9.60;99.90
3944;DHT22;1986;52.546;13.428;2024-02-21T10:18:06;9.60;99.90
3944;DHT22;1986;52.546;13.428;2024-02-21T10:20:33;9.70;99.90
3944;DHT22;1986;52.546;13.428;2024-02-21T10:23:07;9.70;99.90
3944;DHT22;1986;52.546;13.428;2024-02-21T10:25:35;9.70;99.90
3944;DHT22;1986;52.546;13.428;2024-02-21T10:28:07;9.60;99.90
3944;DHT22;1986;52.546;13.428;2024-02-21T10:30:36;9.60;99.90
3944;DHT22;1986;52.546;13.428;2024-02-21T10:33:05;9.70;99.90
3944;DHT22;1986;52.546;13.428;2024-02-21T10:35:34;9.60;99.90
3944;DHT22;1986;52.546;13.428;2024-02-21T10:38:01;9.60;99.90
3944;DHT22;1986;52.546;13.428;2024-02-21T10:40:31;9.70;99.90
3944;DHT22;1986;52.546;13.428;2024-02-21T10:43:01;9.80;99.90
3944;DHT22;1986;52.546;13.428;2024-02-21T10:45:30;9.80;99.90
3944;DHT22;1986;52.546;13.428;2024-02-21T10:48:06;9.80;99.90
3944;DHT22;1986;52.546;13.428;2024-02-21T10:50:40;9.70;99.90
3944;DHT22;1986;52.546;13.428;2024-02-21T10:53:19;9.70;99.90
3944;DHT22;1986;52.546;13.428;2024-02-21T10:55:58;9.70;99.90
3944;DHT22;1986;52.546;13.428;2024-02-21T10:58:31;9.70;99.90
3944;DHT22;1986;52.546;13.428;2024-02-21T11:00:58;9.80;99.90
3944;DHT22;1986;52.546;13.428;2024-02-21T11:03:26;9.70;99.90
3944;DHT22;1986;52.546;13.428;2024-02-21T11:05:55;9.70;99.90
3944;DHT22;1986;52.546;13.428;2024-02-21T11:08:22;9.60;99.90
3944;DHT22;1986;52.546;13.428;2024-02-21T11:10:56;9.50;99.90
3944;DHT22;1986;52.546;13.428;2024-02-21T11:13:30;9.40;99.90
3944;DHT22;1986;52.546;13.428;2024-02-21T11:16:10;9.40;99.90
3944;DHT22;1986;52.546;13.428;2024-02-21T11:18:46;9.40;99.90
3944;DHT22;1986;52.546;13.428;2024-02-21T11:21:15;9.50;99.90
3944;DHT22;1986;52.546;13.428;2024-02-21T11:23:54;9.70;99.90
3944;DHT22;1986;52.546;13.428;2024-02-21T11:26:23;9.70;99.90
3944;DHT22;1986;52.546;13.428;2024-02-21T11:29:13;9.80;99.90
3944;DHT22;1986;52.546;13.428;2024-02-21T11:31:50;10.00;99.90
3944;DHT22;1986;52.546;13.428;2024-02-21T11:34:18;10.10;99.90
3944;DHT22;1986;52.546;13.428;2024-02-21T11:36:49;10.20;99.90
3944;DHT22;1986;52.546;13.428;2024-02-21T11:39:21;10.30;99.90
3944;DHT22;1986;52.546;13.428;2024-02-21T11:42:04;10.40;99.90
3944;DHT22;1986;52.546;13.428;2024-02-21T11:44:35;10.40;99.90
3944;DHT22;1986;52.546;13.428;2024-02-21T11:47:04;10.50;99.90
3944;DHT22;1986;52.546;13.428;2024-02-21T11:49:36;10.50;99.90
3944;DHT22;1986;52.546;13.428;2024-02-21T11:52:05;10.50;99.90
3944;DHT22;1986;52.546;13.428;2024-02-21T11:54:33;10.50;99.90
3944;DHT22;1986;52.546;13.428;2024-02-21T11:57:03;10.50;99.90
3944;DHT22;1986;52.546;13.428;2024-02-21T11:59:31;10.50;99.90
3944;DHT22;1986;52.546;13.428;2024-02-21T12:02:00;10.60;99.90
3944;DHT22;1986;52.546;13.428;2024-02-21T12:04:28;10.60;99.90
3944;DHT22;1986;52.546;13.428;2024-02-21T12:06:58;10.70;99.90
3944;DHT22;1986;52.546;13.428;2024-02-21T12:09:25;10.80;99.90
3944;DHT22;1986;52.546;13.428;2024-02-21T12:12:00;10.70;99.90
3944;DHT22;1986;52.546;13.428;2024-02-21T12:14:35;10.70;99.90
3944;DHT22;1986;52.546;13.428;2024-02-21T12:17:05;10.70;99.90
3944;DHT22;1986;52.546;13.428;2024-02-21T12:19:33;10.80;99.90
3944;DHT22;1986;52.546;13.428;2024-02-21T12:22:01;10.90;99.90
3944;DHT22;1986;52.546;13.428;2024-02-21T12:24:31;10.90;99.90
3944;DHT22;1986;52.546;13.428;2024-02-21T12:26:58;11.00;99.90
3944;DHT22;1986;52.546;13.428;2024-02-21T12:29:25;10.90;99.90
3944;DHT22;1986;52.546;13.428;2024-02-21T12:31:54;11.00;99.90
3944;DHT22;1986;52.546;13.428;2024-02-21T12:34:23;11.10;99.90
3944;DHT22;1986;52.546;13.428;2024-02-21T12:36:53;11.10;99.90
3944;DHT22;1986;52.546;13.428;2024-02-21T12:39:20;11.00;99.90
3944;DHT22;1986;52.546;13.428;2024-02-21T12:41:47;11.10;99.90
3944;DHT22;1986;52.546;13.428;2024-02-21T12:44:14;11.30;99.90
3944;DHT22;1986;52.546;13.428;2024-02-21T12:46:42;11.30;99.90
3944;DHT22;1986;52.546;13.428;2024-02-21T12:49:11;11.20;99.90
3944;DHT22;1986;52.546;13.428;2024-02-21T12:51:38;11.30;99.90
3944;DHT22;1986;52.546;13.428;2024-02-21T12:54:07;11.20;99.90
3944;DHT22;1986;52.546;13.428;2024-02-21T12:56:37;11.20;99.90
3944;DHT22;1986;52.546;13.428;2024-02-21T12:59:05;11.20;99.90
3944;DHT22;1986;52.546;13.428;2024-02-21T13:01:33;11.20;99.90
3944;DHT22;1986;52.546;13.428;2024-02-21T13:04:00;11.40;99.90
3944;DHT22;1986;52.546;13.428;2024-02-21T13:06:29;11.50;99.90
3944;DHT22;1986;52.546;13.428;2024-02-21T13:08:56;11.50;99.90
3944;DHT22;1986;52.546;13.428;2024-02-21T13:11:26;11.40;99.90
3944;DHT22;1986;52.546;13.428;2024-02-21T13:13:56;11.30;99.90
3944;DHT22;1986;52.546;13.428;2024-02-21T13:16:23;11.30;99.90
3944;DHT22;1986;52.546;13.428;2024-02-21T13:18:51;11.20;99.90
3944;DHT22;1986;52.546;13.428;2024-02-21T13:21:18;11.30;99.90
3944;DHT22;1986;52.546;13.428;2024-02-21T13:23:47;11.40;99.90
3944;DHT22;1986;52.546;13.428;2024-02-21T13:26:16;11.40;99.90
3944;DHT22;1986;52.546;13.428;2024-02-21T13:28:45;11.40;99.90
3944;DHT22;1986;52.546;13.428;2024-02-21T13:31:15;11.40;99.90
3944;DHT22;1986;52.546;13.428;2024-02-21T13:33:43;11.40;99.90
3944;DHT22;1986;52.546;13.428;2024-02-21T13:36:14;11.50;99.90
3944;DHT22;1986;52.546;13.428;2024-02-21T13:38:42;11.50;99.90
3944;DHT22;1986;52.546;13.428;2024-02-21T13:41:11;11.50;99.90
3944;DHT22;1986;52.546;13.428;2024-02-21T13:43:38;11.40;99.90
3944;DHT22;1986;52.546;13.428;2024-02-21T13:46:05;11.40;99.90
3944;DHT22;1986;52.546;13.428;2024-02-21T13:48:36;11.40;99.90
3944;DHT22;1986;52.546;13.428;2024-02-21T13:51:04;11.40;99.90
3944;DHT22;1986;52.546;13.428;2024-02-21T13:53:36;11.30;99.90
3944;DHT22;1986;52.546;13.428;2024-02-21T13:56:04;11.40;99.90
3944;DHT22;1986;52.546;13.428;2024-02-21T13:58:32;11.40;99.90
3944;DHT22;1986;52.546;13.428;2024-02-21T14:01:01;11.30;99.90
3944;DHT22;1986;52.546;13.428;2024-02-21T14:03:28;11.30;99.90
3944;DHT22;1986;52.546;13.428;2024-02-21T14:05:55;11.20;99.90
3944;DHT22;1986;52.546;13.428;2024-02-21T14:08:24;11.20;99.90
3944;DHT22;1986;52.546;13.428;2024-02-21T14:10:51;11.20;99.90
3944;DHT22;1986;52.546;13.428;2024-02-21T14:13:18;11.20;99.90
3944;DHT22;1986;52.546;13.428;2024-02-21T14:15:47;11.30;99.90
3944;DHT22;1986;52.546;13.428;2024-02-21T14:18:16;11.30;99.90
3944;DHT22;1986;52.546;13.428;2024-02-21T14:20:44;11.40;99.90
3944;DHT22;1986;52.546;13.428;2024-02-21T14:23:12;11.50;99.90
3944;DHT22;1986;52.546;13.428;2024-02-21T14:25:40;11.40;99.60
3944;DHT22;1986;52.546;13.428;2024-02-21T14:28:16;11.40;98.00
3944;DHT22;1986;52.546;13.428;2024-02-21T14:30:44;11.30;96.00
3944;DHT22;1986;52.546;13.428;2024-02-21T14:33:14;11.30;94.10
3944;DHT22;1986;52.546;13.428;2024-02-21T14:35:41;11.30;93.60
3944;DHT22;1986;52.546;13.428;2024-02-21T14:38:10;11.30;94.30
3944;DHT22;1986;52.546;13.428;2024-02-21T14:40:37;11.40;95.40
3944;DHT22;1986;52.546;13.428;2024-02-21T14:43:04;11.40;93.70
3944;DHT22;1986;52.546;13.428;2024-02-21T14:45:31;11.50;92.90
3944;DHT22;1986;52.546;13.428;2024-02-21T14:47:58;11.50;91.40
3944;DHT22;1986;52.546;13.428;2024-02-21T14:50:27;11.60;90.50
3944;DHT22;1986;52.546;13.428;2024-02-21T14:52:54;11.60;86.70
3944;DHT22;1986;52.546;13.428;2024-02-21T14:55:22;11.70;82.30
3944;DHT22;1986;52.546;13.428;2024-02-21T14:57:49;11.60;73.20
3944;DHT22;1986;52.546;13.428;2024-02-21T15:00:17;11.60;68.70
3944;DHT22;1986;52.546;13.428;2024-02-21T15:02:44;11.60;67.20
3944;DHT22;1986;52.546;13.428;2024-02-21T15:05:11;11.50;65.10
3944;DHT22;1986;52.546;13.428;2024-02-21T15:07:41;11.60;65.40
3944;DHT22;1986;52.546;13.428;2024-02-21T15:10:08;11.50;64.50
3944;DHT22;1986;52.546;13.428;2024-02-21T15:12:37;11.50;66.80
3944;DHT22;1986;52.546;13.428;2024-02-21T15:15:04;11.50;69.20
3944;DHT22;1986;52.546;13.428;2024-02-21T15:17:31;11.50;70.20
3944;DHT22;1986;52.546;13.428;2024-02-21T15:19:59;11.50;71.50
3944;DHT22;1986;52.546;13.428;2024-02-21T15:22:26;11.50;74.70
3944;DHT22;1986;52.546;13.428;2024-02-21T15:24:55;11.50;74.20
3944;DHT22;1986;52.546;13.428;2024-02-21T15:27:27;11.50;74.10
3944;DHT22;1986;52.546;13.428;2024-02-21T15:29:59;11.40;73.00
3944;DHT22;1986;52.546;13.428;2024-02-21T15:32:28;11.40;73.80
3944;DHT22;1986;52.546;13.428;2024-02-21T15:34:58;11.30;71.90
3944;DHT22;1986;52.546;13.428;2024-02-21T15:37:25;11.30;70.60
3944;DHT22;1986;52.546;13.428;2024-02-21T15:39:52;11.20;69.50
3944;DHT22;1986;52.546;13.428;2024-02-21T15:42:28;11.10;70.20
3944;DHT22;1986;52.546;13.428;2024-02-21T15:44:57;11.10;73.40
3944;DHT22;1986;52.546;13.428;2024-02-21T15:47:39;11.00;77.00
3944;DHT22;1986;52.546;13.428;2024-02-21T15:50:12;10.90;74.10
3944;DHT22;1986;52.546;13.428;2024-02-21T15:52:40;10.90;71.90
3944;DHT22;1986;52.546;13.428;2024-02-21T15:55:08;10.80;67.20
3944;DHT22;1986;52.546;13.428;2024-02-21T15:57:39;10.80;65.20
3944;DHT22;1986;52.546;13.428;2024-02-21T16:00:06;10.80;63.20
3944;DHT22;1986;52.546;13.428;2024-02-21T16:02:37;10.80;64.20
3944;DHT22;1986;52.546;13.428;2024-02-21T16:05:07;10.70;71.70